Time;durP1;ratioP1;P1;durP2;ratioP2;P2;SDS_P1;SDS_P2;PMS_P1;PMS_P2;Temp;Humidity;BMP_temperature;BMP_pressure;BME280_temperature;BME280_humidity;BME280_pressure;Samples;Min_cycle;Max_cycle;Signal;HPM_P1;HPM_P2
2021/11/02 00:00:43;;;;;;;4.32;2.15;;;;;;;;;;5013225;28;20074;-77
2021/11/02 00:03:08;;;;;;;6.45;2.83;;;;;;;;;;5010607;28;20030;-85
2021/11/02 00:05:35;;;;;;;5.47;2.88;;;;;;;;;;5009189;28;20628;-84
2021/11/02 00:08:01;;;;;;;5.35;2.70;;;;;;;;;;5017885;28;20028;-77
2021/11/02 00:10:28;;;;;;;7.03;2.50;;;;;;;;;;5012735;28;20026;-85
2021/11/02 00:12:53;;;;;;;6.18;2.78;;;;;;;;;;5010669;28;20053;-77
2021/11/02 00:15:23;;;;;;;5.72;2.88;;;;;;;;;;5004634;28;20033;-77
2021/11/02 00:17:51;;;;;;;5.75;2.38;;;;;;;;;;5011561;28;20496;-84
2021/11/02 00:20:17;;;;;;;6.05;2.58;;;;;;;;;;5006241;28;20030;-80
2021/11/02 00:22:52;;;;;;;5.43;2.80;;;;;;;;;;5015478;28;20026;-78
2021/11/02 00:25:19;;;;;;;5.93;2.38;;;;;;;;;;5007605;28;20026;-84
2021/11/02 00:27:44;;;;;;;6.70;2.97;;;;;;;;;;5015660;28;20120;-77
2021/11/02 00:30:12;;;;;;;7.75;2.78;;;;;;;;;;5011820;28;20536;-83
2021/11/02 00:32:39;;;;;;;7.28;2.60;;;;;;;;;;5008159;28;20494;-77
2021/11/02 00:35:06;;;;;;;5.28;2.67;;;;;;;;;;5017954;28;20024;-85
2021/11/02 00:37:32;;;;;;;5.60;2.55;;;;;;;;;;4998176;28;20034;-78
2021/11/02 00:39:57;;;;;;;7.18;2.70;;;;;;;;;;5016355;28;20038;-77
2021/11/02 00:48:23;;;;;;;6.65;3.05;;;;;;;;;;5001873;28;20091;-84
2021/11/02 00:50:49;;;;;;;5.50;2.58;;;;;;;;;;5016620;28;20044;-85
2021/11/02 00:53:14;;;;;;;7.00;2.80;;;;;;;;;;5007317;28;20034;-78
2021/11/02 00:55:40;;;;;;;6.45;2.90;;;;;;;;;;5009132;28;20440;-77
2021/11/02 00:58:06;;;;;;;6.53;2.65;;;;;;;;;;5021450;28;20073;-79
2021/11/02 01:00:36;;;;;;;6.05;2.47;;;;;;;;;;5009586;28;20022;-83
2021/11/02 01:03:03;;;;;;;5.65;2.67;;;;;;;;;;5018594;28;20119;-77
2021/11/02 01:05:29;;;;;;;5.32;2.42;;;;;;;;;;5010693;28;20026;-78
2021/11/02 01:07:54;;;;;;;6.03;2.55;;;;;;;;;;5007902;28;20396;-77
2021/11/02 01:10:20;;;;;;;6.05;2.67;;;;;;;;;;5013870;28;20116;-83
2021/11/02 01:12:47;;;;;;;6.45;2.70;;;;;;;;;;5014624;28;20057;-85
2021/11/02 01:15:16;;;;;;;6.43;2.80;;;;;;;;;;5012272;28;20064;-78
2021/11/02 01:17:42;;;;;;;5.50;2.50;;;;;;;;;;5009895;28;20022;-83
2021/11/02 01:20:10;;;;;;;5.20;2.50;;;;;;;;;;5013128;28;20026;-77
2021/11/02 01:22:36;;;;;;;6.53;2.67;;;;;;;;;;5008731;28;20033;-83
2021/11/02 01:25:01;;;;;;;6.55;2.80;;;;;;;;;;5007969;28;20048;-80
2021/11/02 01:27:26;;;;;;;5.57;2.58;;;;;;;;;;5009225;28;20045;-85
2021/11/02 01:29:52;;;;;;;6.63;2.75;;;;;;;;;;5026018;28;20018;-85
2021/11/02 01:32:17;;;;;;;6.68;2.83;;;;;;;;;;5005550;28;20083;-84
2021/11/02 01:34:43;;;;;;;6.72;2.80;;;;;;;;;;5005237;28;20034;-78
2021/11/02 01:37:08;;;;;;;7.80;2.65;;;;;;;;;;5011551;28;20029;-85
2021/11/02 01:39:34;;;;;;;5.72;2.40;;;;;;;;;;5014067;28;20085;-83
2021/11/02 01:42:01;;;;;;;5.72;2.80;;;;;;;;;;5017349;28;20034;-77
2021/11/02 01:44:27;;;;;;;6.38;2.40;;;;;;;;;;5013971;28;20021;-84
2021/11/02 01:46:53;;;;;;;7.18;2.97;;;;;;;;;;5011875;28;20029;-78
2021/11/02 01:49:18;;;;;;;7.85;2.63;;;;;;;;;;5012823;28;20020;-77
2021/11/02 01:51:44;;;;;;;7.75;2.70;;;;;;;;;;5013368;28;20034;-83
2021/11/02 01:54:09;;;;;;;7.30;2.75;;;;;;;;;;5016056;28;20056;-84
2021/11/02 01:56:36;;;;;;;4.90;2.45;;;;;;;;;;5013986;28;20405;-77
2021/11/02 01:59:03;;;;;;;5.10;2.70;;;;;;;;;;5013309;28;20029;-84
2021/11/02 02:01:55;;;;;;;5.85;2.70;;;;;;;;;;5013836;28;20018;-78
2021/11/02 02:04:27;;;;;;;6.38;2.72;;;;;;;;;;5008543;28;20097;-79
2021/11/02 02:07:19;;;;;;;6.03;2.70;;;;;;;;;;5013902;28;20095;-77
2021/11/02 02:09:53;;;;;;;7.32;2.42;;;;;;;;;;5021499;28;20089;-83
2021/11/02 02:12:24;;;;;;;6.32;2.80;;;;;;;;;;5015690;28;20555;-79
2021/11/02 02:15:04;;;;;;;5.78;2.88;;;;;;;;;;5024860;28;20030;-84
2021/11/02 02:17:34;;;;;;;6.72;3.20;;;;;;;;;;5011190;28;20059;-78
2021/11/02 02:20:16;;;;;;;7.55;3.20;;;;;;;;;;5004905;28;20485;-84
2021/11/02 02:23:02;;;;;;;6.28;2.97;;;;;;;;;;5008696;28;20057;-85
2021/11/02 02:25:45;;;;;;;5.18;2.60;;;;;;;;;;5019644;28;20030;-86
2021/11/02 02:28:23;;;;;;;6.55;2.90;;;;;;;;;;5009824;28;20040;-83
2021/11/02 02:31:06;;;;;;;6.25;3.00;;;;;;;;;;5013626;28;20105;-84
2021/11/02 02:33:38;;;;;;;6.10;3.17;;;;;;;;;;5005346;28;20029;-85
2021/11/02 02:36:04;;;;;;;6.43;3.10;;;;;;;;;;5019180;28;20026;-77
2021/11/02 02:38:33;;;;;;;6.05;2.97;;;;;;;;;;5012075;28;20096;-85
2021/11/02 02:40:59;;;;;;;4.78;2.63;;;;;;;;;;5004934;28;20101;-83
2021/11/02 02:43:26;;;;;;;6.50;3.15;;;;;;;;;;5006809;28;20022;-77
2021/11/02 02:45:57;;;;;;;7.18;3.28;;;;;;;;;;5024569;28;20085;-79
2021/11/02 02:48:23;;;;;;;6.20;3.05;;;;;;;;;;5012245;28;20064;-79
2021/11/02 02:50:49;;;;;;;7.50;2.95;;;;;;;;;;5012083;28;20037;-84
2021/11/02 02:53:16;;;;;;;5.95;2.50;;;;;;;;;;5002910;28;20025;-77
2021/11/02 02:55:43;;;;;;;7.88;3.35;;;;;;;;;;5014171;28;20048;-83
2021/11/02 02:58:10;;;;;;;6.40;3.10;;;;;;;;;;5009662;28;20045;-83
2021/11/02 03:00:36;;;;;;;6.30;2.92;;;;;;;;;;5013781;28;20022;-77
2021/11/02 03:03:03;;;;;;;6.90;3.10;;;;;;;;;;5005893;28;20030;-78
2021/11/02 03:05:28;;;;;;;7.32;3.53;;;;;;;;;;5008311;28;20515;-78
2021/11/02 03:07:55;;;;;;;5.40;2.70;;;;;;;;;;5015812;28;20034;-82
2021/11/02 03:10:22;;;;;;;5.43;2.63;;;;;;;;;;5018361;28;20080;-83
2021/11/02 03:12:50;;;;;;;6.13;2.83;;;;;;;;;;5005894;28;20103;-86
2021/11/02 03:17:57;;;;;;;7.70;3.20;;;;;;;;;;5014226;28;20038;-84
2021/11/02 03:20:51;;;;;;;4.78;2.70;;;;;;;;;;5006062;28;20030;-82
2021/11/02 03:48:16;;;;;;;6.03;2.95;;;;;;;;;;5009026;28;20029;-85
2021/11/02 04:24:07;;;;;;;4.80;2.97;;;;;;;;;;5003869;28;20060;-78
2021/11/02 05:12:51;;;;;;;5.50;2.42;;;;;;;;;;5015054;28;20136;-77
2021/11/02 05:56:26;;;;;;;4.70;2.28;;;;;;;;;;5009768;28;20088;-84
2021/11/02 05:59:10;;;;;;;5.35;2.40;;;;;;;;;;5020953;28;20029;-77
2021/11/02 06:04:40;;;;;;;4.63;2.05;;;;;;;;;;5009902;28;20036;-85
2021/11/02 06:11:06;;;;;;;6.57;2.45;;;;;;;;;;5016935;28;20029;-83
2021/11/02 06:30:04;;;;;;;3.83;1.95;;;;;;;;;;5013467;28;20533;-84
2021/11/02 06:32:34;;;;;;;6.25;2.15;;;;;;;;;;5013730;28;20433;-85
2021/11/02 06:35:14;;;;;;;4.25;2.03;;;;;;;;;;5006155;28;20057;-78
2021/11/02 06:41:59;;;;;;;6.82;3.13;;;;;;;;;;4977804;28;20042;-78
2021/11/02 06:43:45;;;;;;;4.72;2.08;;;;;;;;;;5013975;28;20026;-77
2021/11/02 06:46:35;;;;;;;4.07;2.17;;;;;;;;;;5014610;28;20043;-83
2021/11/02 06:49:20;;;;;;;4.43;2.40;;;;;;;;;;5008661;28;20109;-77
2021/11/02 06:52:15;;;;;;;3.40;2.20;;;;;;;;;;5026391;28;20053;-84
2021/11/02 07:00:21;;;;;;;5.68;2.35;;;;;;;;;;5022061;28;20516;-77
2021/11/02 08:45:41;;;;;;;5.60;2.92;;;;;;;;;;4912973;29;20055;-83
2021/11/02 08:48:07;;;;;;;6.85;3.30;;;;;;;;;;4981679;28;20120;-78
2021/11/02 08:50:50;;;;;;;4.70;3.08;;;;;;;;;;5025544;28;20557;-80
2021/11/02 08:53:15;;;;;;;5.82;3.00;;;;;;;;;;5026284;28;20088;-78
2021/11/02 08:55:42;;;;;;;5.43;2.85;;;;;;;;;;5017002;28;20049;-83
2021/11/02 08:58:08;;;;;;;5.85;3.38;;;;;;;;;;5015112;28;20025;-84
2021/11/02 09:00:35;;;;;;;4.60;3.00;;;;;;;;;;5016920;28;20033;-83
2021/11/02 09:03:15;;;;;;;5.20;3.30;;;;;;;;;;5013892;28;20044;-79
2021/11/02 09:05:41;;;;;;;4.85;3.15;;;;;;;;;;5021330;28;20017;-82
2021/11/02 09:08:10;;;;;;;5.65;3.30;;;;;;;;;;5021444;28;20018;-84
2021/11/02 09:10:39;;;;;;;5.55;3.40;;;;;;;;;;5018055;28;20547;-78
2021/11/02 09:13:06;;;;;;;7.05;3.10;;;;;;;;;;5015389;28;20103;-78
2021/11/02 09:15:34;;;;;;;5.20;3.47;;;;;;;;;;5020748;28;20033;-78
2021/11/02 09:18:05;;;;;;;6.03;3.50;;;;;;;;;;5015001;28;20060;-84
2021/11/02 09:20:31;;;;;;;8.00;3.95;;;;;;;;;;5008064;28;20420;-84
2021/11/02 09:22:57;;;;;;;5.53;4.07;;;;;;;;;;5020109;28;20125;-78
2021/11/02 09:25:24;;;;;;;7.05;3.90;;;;;;;;;;5018445;28;20063;-78
2021/11/02 09:27:50;;;;;;;7.40;4.22;;;;;;;;;;5023132;28;20063;-79
2021/11/02 09:30:18;;;;;;;8.27;4.47;;;;;;;;;;5020942;28;20018;-78
2021/11/02 09:32:46;;;;;;;7.40;4.03;;;;;;;;;;5019050;28;20033;-82
2021/11/02 09:35:13;;;;;;;8.85;4.20;;;;;;;;;;5020510;28;20058;-82
2021/11/02 09:37:41;;;;;;;6.13;4.25;;;;;;;;;;5022089;28;20029;-78
2021/11/02 09:40:09;;;;;;;6.60;3.35;;;;;;;;;;5021701;28;20080;-83
2021/11/02 09:42:58;;;;;;;7.75;4.25;;;;;;;;;;5022691;28;20037;-79
2021/11/02 09:46:00;;;;;;;6.55;3.88;;;;;;;;;;5011768;28;20441;-78
2021/11/02 09:49:13;;;;;;;10.23;4.40;;;;;;;;;;5022221;28;20397;-82
2021/11/02 09:52:05;;;;;;;7.53;4.00;;;;;;;;;;5021736;28;20124;-82
2021/11/02 09:55:02;;;;;;;8.90;4.68;;;;;;;;;;5017967;28;20035;-84
2021/11/02 09:57:39;;;;;;;6.13;4.13;;;;;;;;;;5020589;28;20029;-78
2021/11/02 10:00:44;;;;;;;9.60;4.05;;;;;;;;;;5007993;28;20034;-84
2021/11/02 10:03:30;;;;;;;7.82;3.90;;;;;;;;;;5020323;28;20053;-83
2021/11/02 10:06:15;;;;;;;7.28;4.45;;;;;;;;;;5020707;28;20255;-83
2021/11/02 10:08:43;;;;;;;8.73;4.70;;;;;;;;;;5020092;28;20651;-82
2021/11/02 10:11:36;;;;;;;7.95;4.85;;;;;;;;;;5019117;28;20025;-78
2021/11/02 10:14:26;;;;;;;8.05;4.68;;;;;;;;;;5010519;28;20049;-83
2021/11/02 10:17:15;;;;;;;6.53;4.57;;;;;;;;;;5014515;28;20066;-82
2021/11/02 10:20:34;;;;;;;9.27;5.20;;;;;;;;;;5011851;28;20044;-79
2021/11/02 10:23:14;;;;;;;6.70;5.20;;;;;;;;;;4989651;28;20110;-79
2021/11/02 10:26:00;;;;;;;6.90;5.18;;;;;;;;;;4996601;28;20040;-82
2021/11/02 10:29:09;;;;;;;9.52;5.13;;;;;;;;;;5004082;28;20473;-82
2021/11/02 10:32:01;;;;;;;7.60;5.30;;;;;;;;;;5016996;28;20059;-84
2021/11/02 10:34:41;;;;;;;7.60;5.10;;;;;;;;;;4997540;28;20038;-78
2021/11/02 10:37:31;;;;;;;7.75;5.57;;;;;;;;;;5014790;28;20040;-85
2021/11/02 10:40:19;;;;;;;8.50;5.70;;;;;;;;;;5018169;28;20054;-82
2021/11/02 10:42:59;;;;;;;7.95;5.32;;;;;;;;;;5010282;28;20044;-84
2021/11/02 10:45:27;;;;;;;8.18;5.22;;;;;;;;;;5022229;28;20484;-78
2021/11/02 10:48:04;;;;;;;9.70;5.50;;;;;;;;;;5012373;28;20552;-85
2021/11/02 10:50:31;;;;;;;9.52;5.30;;;;;;;;;;5015375;28;20457;-85
2021/11/02 10:52:58;;;;;;;7.15;5.15;;;;;;;;;;5019000;28;20579;-79
2021/11/02 10:55:35;;;;;;;8.55;5.45;;;;;;;;;;5006873;28;20041;-79
2021/11/02 10:58:31;;;;;;;7.60;5.38;;;;;;;;;;5015170;28;20442;-79
2021/11/02 11:01:01;;;;;;;7.32;4.82;;;;;;;;;;5024876;28;20029;-79
2021/11/02 11:03:29;;;;;;;8.82;5.07;;;;;;;;;;5014876;28;20048;-78
2021/11/02 11:05:59;;;;;;;8.57;5.38;;;;;;;;;;5015659;28;20473;-78
2021/11/02 11:08:31;;;;;;;7.47;5.20;;;;;;;;;;5017533;28;20172;-82
2021/11/02 11:10:59;;;;;;;9.63;5.72;;;;;;;;;;5019641;28;20097;-78
2021/11/02 11:13:28;;;;;;;7.57;5.35;;;;;;;;;;5018799;28;20499;-79
2021/11/02 11:16:07;;;;;;;9.90;4.93;;;;;;;;;;5021529;28;20112;-84
2021/11/02 11:18:52;;;;;;;9.68;5.70;;;;;;;;;;5018502;28;20561;-79
2021/11/02 11:21:18;;;;;;;8.25;5.68;;;;;;;;;;5018154;28;20017;-82
2021/11/02 11:23:45;;;;;;;7.55;5.32;;;;;;;;;;5016047;28;20035;-78
2021/11/02 11:26:10;;;;;;;8.00;5.75;;;;;;;;;;5017514;28;20096;-85
2021/11/02 11:28:39;;;;;;;9.18;5.93;;;;;;;;;;5020323;28;20429;-83
2021/11/02 11:31:05;;;;;;;8.77;5.82;;;;;;;;;;5015254;28;20022;-79
2021/11/02 11:33:32;;;;;;;8.05;5.72;;;;;;;;;;5011648;28;20048;-78
2021/11/02 11:36:06;;;;;;;8.43;6.15;;;;;;;;;;5008343;28;20030;-78
2021/11/02 11:38:40;;;;;;;8.45;6.00;;;;;;;;;;5028185;28;20026;-85
2021/11/02 11:41:09;;;;;;;9.10;5.82;;;;;;;;;;5020374;28;20029;-85
2021/11/02 11:43:35;;;;;;;8.60;6.20;;;;;;;;;;5019561;28;20615;-78
2021/11/02 11:46:03;;;;;;;9.02;6.15;;;;;;;;;;5015391;28;20080;-83
2021/11/02 11:48:30;;;;;;;9.43;6.32;;;;;;;;;;5022243;28;20057;-79
2021/11/02 11:51:01;;;;;;;8.60;6.03;;;;;;;;;;5014187;28;20378;-85
2021/11/02 11:53:30;;;;;;;9.77;6.13;;;;;;;;;;5014314;28;20037;-82
2021/11/02 11:56:08;;;;;;;15.70;6.32;;;;;;;;;;5017772;28;20030;-78
2021/11/02 11:58:35;;;;;;;10.27;6.70;;;;;;;;;;5008908;28;20088;-79
2021/11/02 12:01:13;;;;;;;10.40;6.32;;;;;;;;;;5013640;28;20033;-78
2021/11/02 12:03:51;;;;;;;8.38;6.07;;;;;;;;;;5018166;28;20037;-81
2021/11/02 12:06:16;;;;;;;10.07;6.18;;;;;;;;;;5016322;28;20029;-79
2021/11/02 12:09:02;;;;;;;10.02;6.60;;;;;;;;;;5010735;28;20048;-85
2021/11/02 12:11:32;;;;;;;9.80;7.13;;;;;;;;;;5035560;28;20560;-82
2021/11/02 12:14:25;;;;;;;11.40;6.97;;;;;;;;;;5015289;28;20038;-85
2021/11/02 12:16:57;;;;;;;9.95;6.80;;;;;;;;;;5012844;28;20041;-82
2021/11/02 12:19:39;;;;;;;11.15;7.10;;;;;;;;;;5017935;28;20111;-78
2021/11/02 12:22:08;;;;;;;12.23;6.95;;;;;;;;;;5019870;28;20043;-86
2021/11/02 12:24:38;;;;;;;9.40;6.72;;;;;;;;;;5025535;28;20022;-78
2021/11/02 12:27:15;;;;;;;10.98;6.35;;;;;;;;;;5024093;28;20037;-85
2021/11/02 12:29:42;;;;;;;8.52;6.95;;;;;;;;;;5017563;28;20030;-85
2021/11/02 12:32:13;;;;;;;9.25;7.30;;;;;;;;;;5023310;28;20030;-79
2021/11/02 12:34:48;;;;;;;9.27;6.78;;;;;;;;;;5015588;28;20493;-85
2021/11/02 12:37:14;;;;;;;10.30;7.22;;;;;;;;;;5019952;28;20496;-83
2021/11/02 12:39:41;;;;;;;11.75;7.63;;;;;;;;;;5023076;28;20029;-83
2021/11/02 12:42:06;;;;;;;11.07;7.47;;;;;;;;;;5022588;28;20057;-78
2021/11/02 12:44:38;;;;;;;10.25;7.13;;;;;;;;;;5020204;28;20104;-85
2021/11/02 12:47:06;;;;;;;9.07;6.38;;;;;;;;;;5018677;28;20047;-83
2021/11/02 12:50:02;;;;;;;10.60;7.50;;;;;;;;;;5012533;28;20105;-85
2021/11/02 12:52:31;;;;;;;11.40;7.05;;;;;;;;;;5013877;28;20083;-82
2021/11/02 12:55:10;;;;;;;10.98;6.75;;;;;;;;;;5022073;28;20057;-79
2021/11/02 12:57:48;;;;;;;10.38;6.55;;;;;;;;;;5017290;28;20075;-84
2021/11/02 13:00:16;;;;;;;8.05;6.18;;;;;;;;;;5020648;28;20042;-82
2021/11/02 13:02:44;;;;;;;9.38;6.15;;;;;;;;;;5012836;28;20034;-78
2021/11/02 13:05:12;;;;;;;9.50;6.75;;;;;;;;;;5025237;28;20025;-82
2021/11/02 13:07:40;;;;;;;9.02;6.75;;;;;;;;;;5024513;28;20493;-81
2021/11/02 13:10:19;;;;;;;9.55;6.55;;;;;;;;;;5026524;28;20048;-77
2021/11/02 13:12:48;;;;;;;9.10;5.15;;;;;;;;;;5016591;28;20064;-77
2021/11/02 13:15:14;;;;;;;6.50;4.22;;;;;;;;;;5024234;28;20037;-81
2021/11/02 13:17:43;;;;;;;6.20;3.80;;;;;;;;;;5021174;28;21254;-82
2021/11/02 13:20:10;;;;;;;5.35;3.75;;;;;;;;;;5015545;28;20032;-80
2021/11/02 13:22:35;;;;;;;5.45;3.75;;;;;;;;;;5016517;28;20080;-77
2021/11/02 13:25:09;;;;;;;6.35;4.07;;;;;;;;;;5025095;28;20045;-82
2021/11/02 13:27:39;;;;;;;5.40;3.88;;;;;;;;;;5017854;28;20034;-77
2021/11/02 13:30:42;;;;;;;7.07;4.63;;;;;;;;;;5016572;28;20762;-81
2021/11/02 13:33:09;;;;;;;8.48;3.88;;;;;;;;;;5025977;28;20143;-77
2021/11/02 13:35:42;;;;;;;7.00;3.92;;;;;;;;;;5024578;28;20025;-82
2021/11/02 13:38:25;;;;;;;8.35;4.63;;;;;;;;;;5018758;28;20033;-82
2021/11/02 13:40:52;;;;;;;7.57;4.13;;;;;;;;;;5025764;28;20135;-82
2021/11/02 13:43:42;;;;;;;8.50;4.43;;;;;;;;;;5022380;28;20113;-83
2021/11/02 13:46:11;;;;;;;5.65;3.90;;;;;;;;;;5021152;28;20029;-81
2021/11/02 13:48:39;;;;;;;4.90;3.92;;;;;;;;;;5015012;28;20034;-78
2021/11/02 13:51:06;;;;;;;6.40;4.00;;;;;;;;;;5013236;28;20017;-83
2021/11/02 13:53:33;;;;;;;7.10;4.30;;;;;;;;;;5017409;28;20112;-82
2021/11/02 13:56:01;;;;;;;6.05;3.60;;;;;;;;;;5010786;28;20022;-84
2021/11/02 13:58:26;;;;;;;5.72;3.72;;;;;;;;;;5014014;28;20558;-83
2021/11/02 14:00:52;;;;;;;4.90;3.78;;;;;;;;;;5008170;28;20064;-83
2021/11/02 14:03:24;;;;;;;5.90;3.97;;;;;;;;;;5012817;28;20037;-83
2021/11/02 14:05:50;;;;;;;5.55;3.95;;;;;;;;;;5016094;28;20029;-81
2021/11/02 14:08:19;;;;;;;6.22;3.80;;;;;;;;;;5013633;28;20120;-84
2021/11/02 14:10:57;;;;;;;5.60;3.90;;;;;;;;;;5019871;28;20509;-82
2021/11/02 14:13:55;;;;;;;7.22;4.43;;;;;;;;;;5017780;28;20049;-77
2021/11/02 14:16:42;;;;;;;5.97;4.20;;;;;;;;;;4983164;28;20123;-82
2021/11/02 14:19:32;;;;;;;7.15;4.13;;;;;;;;;;5015210;28;20026;-82
2021/11/02 14:21:58;;;;;;;5.50;3.75;;;;;;;;;;5018145;28;20080;-78
2021/11/02 14:24:51;;;;;;;5.43;4.30;;;;;;;;;;5005519;28;20042;-77
2021/11/02 14:27:39;;;;;;;7.20;5.00;;;;;;;;;;5015586;28;20493;-82
2021/11/02 14:30:05;;;;;;;5.65;3.83;;;;;;;;;;5002831;28;20029;-80
2021/11/02 14:32:36;;;;;;;5.63;4.47;;;;;;;;;;5013101;28;20038;-78
2021/11/02 14:35:08;;;;;;;7.97;5.10;;;;;;;;;;5012380;28;20217;-77
2021/11/02 14:37:53;;;;;;;8.15;5.45;;;;;;;;;;5011459;28;20130;-77
2021/11/02 14:40:25;;;;;;;6.50;4.78;;;;;;;;;;5011912;28;20033;-81
2021/11/02 14:42:55;;;;;;;5.80;4.53;;;;;;;;;;5008937;28;20120;-78
2021/11/02 14:45:41;;;;;;;7.65;4.65;;;;;;;;;;5012014;28;20029;-78
2021/11/02 14:48:25;;;;;;;5.70;4.28;;;;;;;;;;5007606;28;20373;-78
2021/11/02 14:50:54;;;;;;;7.05;4.55;;;;;;;;;;5008381;28;20037;-81
2021/11/02 14:53:29;;;;;;;7.63;4.32;;;;;;;;;;5010754;28;20061;-82
2021/11/02 14:55:58;;;;;;;5.25;4.22;;;;;;;;;;5016663;28;20040;-82
2021/11/02 14:58:38;;;;;;;6.80;4.32;;;;;;;;;;5009990;28;20461;-82
2021/11/02 15:01:10;;;;;;;5.70;3.75;;;;;;;;;;5015965;28;20120;-79
2021/11/02 15:03:36;;;;;;;6.22;4.47;;;;;;;;;;5006927;28;20511;-78
2021/11/02 15:06:11;;;;;;;5.10;3.58;;;;;;;;;;5012811;28;20441;-79
2021/11/02 15:08:38;;;;;;;6.00;4.00;;;;;;;;;;5016727;28;20586;-78
2021/11/02 15:11:11;;;;;;;5.32;3.67;;;;;;;;;;5015636;28;20017;-81
2021/11/02 15:13:45;;;;;;;5.45;4.13;;;;;;;;;;5009969;28;20045;-82
2021/11/02 15:16:10;;;;;;;5.15;3.70;;;;;;;;;;5008759;28;20033;-82
2021/11/02 15:18:44;;;;;;;5.18;3.78;;;;;;;;;;5016432;28;20154;-78
2021/11/02 15:21:11;;;;;;;4.68;3.40;;;;;;;;;;5006862;28;20030;-81
2021/11/02 15:23:43;;;;;;;4.93;3.28;;;;;;;;;;5008130;28;20053;-77
2021/11/02 15:26:09;;;;;;;9.52;5.50;;;;;;;;;;5004437;28;20033;-82
2021/11/02 15:28:47;;;;;;;8.23;5.65;;;;;;;;;;5009680;28;20036;-81
2021/11/02 15:31:23;;;;;;;8.80;5.50;;;;;;;;;;5010911;28;20887;-78
2021/11/02 15:33:48;;;;;;;16.85;8.63;;;;;;;;;;5011510;28;20496;-78
2021/11/02 15:36:19;;;;;;;7.30;4.28;;;;;;;;;;5013227;28;20041;-80
2021/11/02 15:38:59;;;;;;;5.88;3.55;;;;;;;;;;5004684;28;20663;-82
2021/11/02 15:41:26;;;;;;;4.13;2.63;;;;;;;;;;5007045;28;20496;-78
2021/11/02 15:44:00;;;;;;;3.92;2.85;;;;;;;;;;5009353;28;20873;-77
2021/11/02 15:46:29;;;;;;;5.68;3.45;;;;;;;;;;5018093;28;20460;-81
2021/11/02 15:48:56;;;;;;;7.78;4.40;;;;;;;;;;5011477;28;20947;-77
2021/11/02 15:51:24;;;;;;;7.53;4.03;;;;;;;;;;5010741;28;20057;-77
2021/11/02 15:53:49;;;;;;;6.10;3.50;;;;;;;;;;5006542;28;20056;-81
2021/11/02 15:56:22;;;;;;;4.50;3.15;;;;;;;;;;5007733;28;20068;-78
2021/11/02 15:58:56;;;;;;;5.38;3.25;;;;;;;;;;5009089;28;20089;-78
2021/11/02 16:01:49;;;;;;;4.18;3.10;;;;;;;;;;5005686;28;20094;-81
2021/11/02 16:04:21;;;;;;;5.57;3.40;;;;;;;;;;5006208;28;20045;-78
2021/11/02 16:07:11;;;;;;;4.63;3.05;;;;;;;;;;5024221;28;20091;-80
2021/11/02 16:09:55;;;;;;;5.97;3.22;;;;;;;;;;5000269;28;20039;-78
2021/11/02 16:12:27;;;;;;;5.30;3.60;;;;;;;;;;4994351;28;20053;-77
2021/11/02 16:15:02;;;;;;;5.03;3.55;;;;;;;;;;5013615;28;20037;-81
2021/11/02 16:17:29;;;;;;;4.97;3.22;;;;;;;;;;5005485;28;20382;-78
2021/11/02 16:19:58;;;;;;;5.18;4.10;;;;;;;;;;5012274;28;20160;-82
2021/11/02 16:22:25;;;;;;;6.25;4.18;;;;;;;;;;5012239;28;20026;-77
2021/11/02 16:25:07;;;;;;;6.85;4.00;;;;;;;;;;5013133;28;20033;-78
2021/11/02 16:27:32;;;;;;;6.53;4.20;;;;;;;;;;5008870;28;20036;-77
2021/11/02 16:30:15;;;;;;;6.40;4.32;;;;;;;;;;5013973;28;20493;-81
2021/11/02 16:32:44;;;;;;;7.43;5.00;;;;;;;;;;5020338;28;20111;-82
2021/11/02 16:35:09;;;;;;;7.07;4.80;;;;;;;;;;5009058;28;20453;-81
2021/11/02 16:37:38;;;;;;;7.75;4.30;;;;;;;;;;5014341;28;20062;-81
2021/11/02 16:40:17;;;;;;;7.00;4.80;;;;;;;;;;5001648;28;20033;-82
2021/11/02 16:42:58;;;;;;;6.97;4.55;;;;;;;;;;5014795;28;20040;-81
2021/11/02 16:45:29;;;;;;;6.20;4.60;;;;;;;;;;5006094;28;20029;-81
2021/11/02 16:47:58;;;;;;;6.13;4.40;;;;;;;;;;5002969;28;20160;-78
2021/11/02 16:50:37;;;;;;;6.57;4.68;;;;;;;;;;5000438;28;20029;-82
2021/11/02 16:53:23;;;;;;;6.75;4.28;;;;;;;;;;5024793;28;20041;-84
2021/11/02 16:55:53;;;;;;;7.50;4.70;;;;;;;;;;5005791;28;20498;-79
2021/11/02 16:58:19;;;;;;;8.85;4.70;;;;;;;;;;5003207;28;20176;-78
2021/11/02 17:00:45;;;;;;;6.70;5.07;;;;;;;;;;5011644;28;20120;-78
2021/11/02 17:03:14;;;;;;;6.40;4.93;;;;;;;;;;5008139;28;20705;-78
2021/11/02 17:05:40;;;;;;;8.15;5.18;;;;;;;;;;5005007;28;20026;-77
2021/11/02 17:08:11;;;;;;;14.65;5.45;;;;;;;;;;5024305;28;20260;-81
2021/11/02 17:10:40;;;;;;;7.07;4.95;;;;;;;;;;5015713;28;20542;-77
2021/11/02 17:13:13;;;;;;;7.18;4.60;;;;;;;;;;5025165;28;20046;-82
2021/11/02 17:15:52;;;;;;;7.03;4.95;;;;;;;;;;5011968;28;20026;-77
2021/11/02 17:18:23;;;;;;;6.50;5.20;;;;;;;;;;5018038;28;20103;-79
2021/11/02 17:21:04;;;;;;;7.20;5.10;;;;;;;;;;5008214;28;20897;-82
2021/11/02 17:23:30;;;;;;;7.78;5.07;;;;;;;;;;5012097;28;20060;-78
2021/11/02 17:25:55;;;;;;;7.70;5.35;;;;;;;;;;5012140;28;20797;-77
2021/11/02 17:28:21;;;;;;;7.95;5.57;;;;;;;;;;5014419;28;20033;-78
2021/11/02 17:30:46;;;;;;;8.48;5.45;;;;;;;;;;5018690;28;20017;-81
2021/11/02 17:33:12;;;;;;;8.65;6.13;;;;;;;;;;5001963;28;20029;-78
2021/11/02 17:35:38;;;;;;;8.43;6.15;;;;;;;;;;5017590;28;20022;-80
2021/11/02 17:38:04;;;;;;;10.27;6.13;;;;;;;;;;5018384;28;20034;-77
2021/11/02 17:40:30;;;;;;;7.55;5.57;;;;;;;;;;5020096;28;20114;-78
2021/11/02 17:42:58;;;;;;;9.57;6.63;;;;;;;;;;5020420;28;20029;-83
2021/11/02 17:45:24;;;;;;;8.80;6.10;;;;;;;;;;5015662;28;20472;-82
2021/11/02 17:47:51;;;;;;;10.73;6.93;;;;;;;;;;5030800;28;20488;-76
2021/11/02 17:50:18;;;;;;;10.10;6.97;;;;;;;;;;5011613;28;20132;-78
2021/11/02 17:52:44;;;;;;;9.05;7.15;;;;;;;;;;5008827;28;20049;-77
2021/11/02 17:55:11;;;;;;;10.70;7.88;;;;;;;;;;5021008;28;20061;-82
2021/11/02 17:57:39;;;;;;;10.40;7.10;;;;;;;;;;5013155;28;20032;-77
2021/11/02 18:00:07;;;;;;;12.52;9.30;;;;;;;;;;5017702;28;20061;-77
2021/11/02 18:02:33;;;;;;;12.10;9.50;;;;;;;;;;5015613;28;20362;-83
2021/11/02 18:04:59;;;;;;;15.55;9.13;;;;;;;;;;5011211;28;20034;-81
2021/11/02 18:07:25;;;;;;;13.07;9.02;;;;;;;;;;5005850;28;20508;-77
2021/11/02 18:09:50;;;;;;;12.18;8.82;;;;;;;;;;5013670;28;20507;-81
2021/11/02 18:12:16;;;;;;;13.40;9.60;;;;;;;;;;5016970;28;20049;-77
2021/11/02 18:14:42;;;;;;;12.20;8.27;;;;;;;;;;5015793;28;20030;-81
2021/11/02 18:17:08;;;;;;;14.57;8.88;;;;;;;;;;5009922;28;20087;-77
2021/11/02 18:19:37;;;;;;;13.77;8.63;;;;;;;;;;5018165;28;20055;-81
2021/11/02 18:22:03;;;;;;;10.68;7.75;;;;;;;;;;5023309;28;20014;-81
2021/11/02 18:24:33;;;;;;;14.45;9.13;;;;;;;;;;5006484;28;20022;-82
2021/11/02 18:26:59;;;;;;;13.73;9.80;;;;;;;;;;5008526;28;20071;-79
2021/11/02 18:29:24;;;;;;;15.98;10.20;;;;;;;;;;5006345;28;20385;-81
2021/11/02 18:31:50;;;;;;;14.75;10.55;;;;;;;;;;5005984;28;20104;-82
2021/11/02 18:34:16;;;;;;;14.95;10.70;;;;;;;;;;5012411;28;20401;-81
2021/11/02 18:36:42;;;;;;;13.82;10.18;;;;;;;;;;5014505;28;20112;-77
2021/11/02 18:39:07;;;;;;;14.95;11.02;;;;;;;;;;5008711;28;20036;-81
2021/11/02 18:41:34;;;;;;;17.77;10.70;;;;;;;;;;5021217;28;20381;-78
2021/11/02 18:43:59;;;;;;;16.58;11.43;;;;;;;;;;5011762;28;20029;-82
2021/11/02 18:46:26;;;;;;;15.18;11.15;;;;;;;;;;5005581;28;20037;-78
2021/11/02 18:48:51;;;;;;;18.17;12.18;;;;;;;;;;5010268;28;20092;-80
2021/11/02 18:51:17;;;;;;;15.80;11.65;;;;;;;;;;5007123;28;20022;-81
2021/11/02 18:53:42;;;;;;;19.13;12.20;;;;;;;;;;5008384;28;20034;-77
2021/11/02 18:56:08;;;;;;;18.52;11.65;;;;;;;;;;5016219;28;20029;-81
2021/11/02 18:58:35;;;;;;;18.42;11.98;;;;;;;;;;5006996;28;20049;-77
2021/11/02 19:01:00;;;;;;;18.90;13.30;;;;;;;;;;5017106;28;20044;-77
2021/11/02 19:03:25;;;;;;;19.77;13.77;;;;;;;;;;5016189;28;20029;-82
2021/11/02 19:05:51;;;;;;;19.85;13.05;;;;;;;;;;5009784;28;20029;-77
2021/11/02 19:08:18;;;;;;;19.45;13.60;;;;;;;;;;5010148;28;20143;-78
2021/11/02 19:10:46;;;;;;;20.15;13.05;;;;;;;;;;5012902;28;20036;-77
2021/11/02 19:13:12;;;;;;;20.90;13.18;;;;;;;;;;5014175;28;20555;-81
2021/11/02 19:15:39;;;;;;;18.67;12.73;;;;;;;;;;5008440;28;20099;-76
2021/11/02 19:18:05;;;;;;;20.13;13.10;;;;;;;;;;5013109;28;20148;-83
2021/11/02 19:20:30;;;;;;;16.98;12.38;;;;;;;;;;5014490;28;20066;-81
2021/11/02 19:22:55;;;;;;;17.67;12.27;;;;;;;;;;5010817;28;20029;-81
2021/11/02 19:25:21;;;;;;;17.92;12.30;;;;;;;;;;5008289;28;20036;-81
2021/11/02 19:27:47;;;;;;;19.33;12.20;;;;;;;;;;5011962;28;20037;-80
2021/11/02 19:30:13;;;;;;;19.10;12.60;;;;;;;;;;5009520;28;20096;-78
2021/11/02 19:32:39;;;;;;;17.60;11.40;;;;;;;;;;5004612;28;20026;-79
2021/11/02 19:35:08;;;;;;;18.02;11.75;;;;;;;;;;5007433;28;20041;-77
2021/11/02 19:37:34;;;;;;;15.98;11.13;;;;;;;;;;5023368;28;20532;-80
2021/11/02 19:39:59;;;;;;;16.30;11.02;;;;;;;;;;5010379;28;20116;-81
2021/11/02 19:42:28;;;;;;;15.82;10.65;;;;;;;;;;5007728;28;20373;-77
2021/11/02 19:44:57;;;;;;;16.38;10.40;;;;;;;;;;5007220;28;20018;-80
2021/11/02 19:47:23;;;;;;;15.40;10.85;;;;;;;;;;5009361;28;20127;-78
2021/11/02 19:49:49;;;;;;;15.45;10.02;;;;;;;;;;5006823;28;20436;-82
2021/11/02 19:52:14;;;;;;;14.70;10.32;;;;;;;;;;5007966;28;20137;-82
2021/11/02 19:54:40;;;;;;;17.30;11.20;;;;;;;;;;5011636;28;20117;-81